createdAt,value
2023-01-13T00:08:52.059Z,88.64
2023-01-13T00:29:05.681Z,88.86
2023-01-13T00:39:13.113Z,88.92
2023-01-13T00:49:33.699Z,89.06
2023-01-13T01:09:47.088Z,89.02
2023-01-13T01:30:00.732Z,89.22
2023-01-13T01:40:09.717Z,89.24
2023-01-13T01:50:18.298Z,89.02
2023-01-13T02:00:27.044Z,89.02
2023-01-13T02:10:34.751Z,88.89
2023-01-13T02:20:58.349Z,89.11
2023-01-13T02:31:23.728Z,88.85
2023-01-13T02:41:50.889Z,88.67
2023-01-13T02:52:00.179Z,88.54
2023-01-13T03:02:10.560Z,88.30
2023-01-13T03:12:22.476Z,88.44
2023-01-13T03:22:28.749Z,88.27
2023-01-13T03:32:36.945Z,88.09
2023-01-13T03:42:47.345Z,88.02
2023-01-13T03:52:58.424Z,88.23
2023-01-13T04:03:10.969Z,88.19
2023-01-13T04:13:20.326Z,88.01
2023-01-13T04:23:28.059Z,87.99
2023-01-13T04:33:35.475Z,87.98
2023-01-13T04:43:43.385Z,87.93
2023-01-13T04:53:52.498Z,87.76
2023-01-13T05:03:59.728Z,87.54
2023-01-13T05:14:24.430Z,87.48
2023-01-13T05:24:49.082Z,87.47
2023-01-13T05:34:56.303Z,87.41
2023-01-13T05:45:03.638Z,87.19
2023-01-13T05:55:10.672Z,87.14
2023-01-13T06:05:18.034Z,87.00
2023-01-13T06:15:26.074Z,86.97
2023-01-13T06:25:32.043Z,86.87
2023-01-13T06:35:41.015Z,86.74
2023-01-13T06:45:46.731Z,86.70
2023-01-13T06:55:54.015Z,86.69
2023-01-13T07:06:02.353Z,86.40
2023-01-13T07:16:11.023Z,86.34
2023-01-13T07:26:18.633Z,86.30
2023-01-13T07:36:25.910Z,86.16
2023-01-13T07:46:33.168Z,85.89
2023-01-13T07:56:37.650Z,85.91
2023-01-13T08:06:44.882Z,85.84
2023-01-13T08:16:49.396Z,85.71
2023-01-13T08:26:56.688Z,85.45
2023-01-13T08:37:03.890Z,85.33
2023-01-13T08:47:11.315Z,85.38
2023-01-13T08:57:18.793Z,85.04
2023-01-13T09:07:25.950Z,84.75
2023-01-13T09:17:33.002Z,84.65
2023-01-13T09:27:40.813Z,84.62
2023-01-13T09:37:46.758Z,84.43
2023-01-13T09:47:56.033Z,84.06
2023-01-13T09:58:02.690Z,83.66
2023-01-13T10:08:12.149Z,83.38
2023-01-13T10:18:19.378Z,82.98
2023-01-13T10:28:26.670Z,82.70
2023-01-13T10:38:40.277Z,82.13
2023-01-13T10:48:56.087Z,81.83
2023-01-13T10:59:21.391Z,81.53
2023-01-13T11:09:31.298Z,81.27
2023-01-13T11:19:43.144Z,81.29
2023-01-13T11:29:52.330Z,81.15
2023-01-13T11:40:01.706Z,80.85
2023-01-13T11:50:19.729Z,80.78
2023-01-13T12:00:48.883Z,80.57
2023-01-13T12:10:57.178Z,80.27
2023-01-13T12:21:14.910Z,79.80
2023-01-13T12:31:23.587Z,79.80
2023-01-13T12:41:32.657Z,79.42
2023-01-13T12:52:03.609Z,79.47
2023-01-13T13:02:27.697Z,79.58
2023-01-13T13:13:17.532Z,79.39
2023-01-13T13:24:03.200Z,79.42
2023-01-13T13:34:13.094Z,79.40
2023-01-13T13:44:35.494Z,79.57
2023-01-13T14:04:48.501Z,79.97
2023-01-13T14:14:55.441Z,79.91
2023-01-13T14:25:02.891Z,79.86
2023-01-13T14:35:10.564Z,79.88
2023-01-13T14:45:25.068Z,79.99
2023-01-13T14:55:34.524Z,80.13
2023-01-13T15:05:49.851Z,80.23
2023-01-13T15:15:57.242Z,80.43
2023-01-13T15:26:04.211Z,80.73
2023-01-13T15:36:16.292Z,80.78
2023-01-13T15:46:41.687Z,80.91
2023-01-13T15:56:49.649Z,81.01
2023-01-13T16:06:57.459Z,81.25
2023-01-13T16:17:03.806Z,81.50
2023-01-13T16:27:13.768Z,81.42
2023-01-13T16:37:19.915Z,81.56
2023-01-13T16:47:26.168Z,81.69
2023-01-13T16:57:32.307Z,81.61
2023-01-13T17:07:39.951Z,81.65
2023-01-13T17:17:47.175Z,81.72
2023-01-13T17:27:54.481Z,81.94
2023-01-13T17:38:02.272Z,82.03
2023-01-13T17:48:07.387Z,82.14
2023-01-13T17:58:14.429Z,82.45
2023-01-13T18:08:21.231Z,82.78
2023-01-13T18:18:28.246Z,83.15
2023-01-13T18:28:35.881Z,83.50
2023-01-13T18:38:42.954Z,83.85
2023-01-13T18:48:50.151Z,84.03
2023-01-13T18:58:57.682Z,84.40
2023-01-13T19:09:05.576Z,84.70
2023-01-13T19:19:12.882Z,84.82
2023-01-13T19:29:20.101Z,84.87
2023-01-13T19:39:27.437Z,85.16
2023-01-13T19:49:35.451Z,85.23
2023-01-13T19:59:43.044Z,85.45
2023-01-13T20:09:50.498Z,85.67
2023-01-13T20:19:59.084Z,85.78
2023-01-13T20:30:09.781Z,85.94
2023-01-13T20:40:16.009Z,86.29
2023-01-13T20:50:23.383Z,86.32
2023-01-13T21:00:30.478Z,86.63
2023-01-13T21:10:37.624Z,86.57
2023-01-13T21:20:44.734Z,86.64
2023-01-13T21:30:52.937Z,86.76
2023-01-13T21:40:58.459Z,87.02
2023-01-13T21:51:05.683Z,87.00
2023-01-13T22:01:12.904Z,87.06
2023-01-13T22:11:20.260Z,87.29
2023-01-13T22:21:27.456Z,87.30
2023-01-13T22:31:35.434Z,87.22
2023-01-13T22:41:42.543Z,87.31
2023-01-13T22:51:49.895Z,87.33
2023-01-13T23:01:57.355Z,87.42
2023-01-13T23:12:04.394Z,87.51
2023-01-13T23:22:13.206Z,87.55
2023-01-13T23:32:20.736Z,87.54
2023-01-13T23:42:27.997Z,87.43
2023-01-13T23:52:34.798Z,87.61
